createdAt,value
2023-02-06T00:01:52.642Z,104395.97
2023-02-06T00:04:21.903Z,104395.14
2023-02-06T00:06:51.157Z,104393.38
2023-02-06T00:09:20.359Z,104402.48
2023-02-06T00:11:49.623Z,104401.63
2023-02-06T00:14:18.865Z,104402.05
2023-02-06T00:16:48.333Z,104404.67
2023-02-06T00:19:17.551Z,104398.59
2023-02-06T00:21:47.179Z,104399.49
2023-02-06T00:24:16.718Z,104401.20
2023-02-06T00:26:46.205Z,104403.41
2023-02-06T00:29:15.437Z,104395.19
2023-02-06T00:31:44.744Z,104395.62
2023-02-06T00:34:14.836Z,104399.11
2023-02-06T00:36:44.251Z,104386.99
2023-02-06T00:39:13.652Z,104387.84
2023-02-06T00:41:42.968Z,104386.13
2023-02-06T00:44:12.924Z,104393.53
2023-02-06T00:46:42.524Z,104382.71
2023-02-06T00:49:11.738Z,104381.41
2023-02-06T00:51:41.393Z,104382.25
2023-02-06T00:54:11.087Z,104375.31
2023-02-06T00:56:40.476Z,104384.88
2023-02-06T00:59:09.767Z,104382.67
2023-02-06T01:01:40.749Z,104386.16
2023-02-06T01:04:10.016Z,104393.08
2023-02-06T01:06:39.801Z,104394.39
2023-02-06T01:09:09.067Z,104394.84
2023-02-06T01:11:38.540Z,104397.45
2023-02-06T01:14:07.764Z,104392.64
2023-02-06T01:16:37.726Z,104391.34
2023-02-06T01:19:06.985Z,104397.00
2023-02-06T01:21:37.207Z,104396.59
2023-02-06T01:24:06.999Z,104396.16
2023-02-06T01:26:36.408Z,104396.98
2023-02-06T01:29:06.073Z,104399.19
2023-02-06T01:31:35.974Z,104409.17
2023-02-06T01:34:07.647Z,104412.19
2023-02-06T01:36:37.789Z,104410.45
2023-02-06T01:39:07.965Z,104420.41
2023-02-06T01:41:37.283Z,104416.49
2023-02-06T01:44:18.382Z,104425.17
2023-02-06T01:46:52.479Z,104419.53
2023-02-06T01:49:36.711Z,104418.64
2023-02-06T01:52:18.489Z,104413.43
2023-02-06T01:54:50.162Z,104404.31
2023-02-06T01:57:20.416Z,104407.36
2023-02-06T01:59:53.464Z,104407.81
2023-02-06T02:02:24.288Z,104405.63
2023-02-06T02:04:55.768Z,104403.02
2023-02-06T02:07:28.763Z,104400.00
2023-02-06T02:09:59.127Z,104398.71
2023-02-06T02:12:29.696Z,104404.34
2023-02-06T02:14:59.489Z,104384.75
2023-02-06T02:17:38.065Z,104401.70
2023-02-06T02:20:40.696Z,104387.79
2023-02-06T02:23:32.068Z,104386.05
2023-02-06T02:26:13.087Z,104383.44
2023-02-06T02:29:05.966Z,104381.27
2023-02-06T02:31:48.069Z,104378.66
2023-02-06T02:34:36.725Z,104366.92
2023-02-06T02:37:30.405Z,104373.39
2023-02-06T02:40:21.864Z,104372.53
2023-02-06T02:42:59.913Z,104371.55
2023-02-06T02:45:39.468Z,104369.80
2023-02-06T02:48:11.930Z,104372.39
2023-02-06T02:50:42.134Z,104364.52
2023-02-06T02:53:14.934Z,104361.39
2023-02-06T02:55:44.385Z,104365.59
2023-02-06T02:58:16.453Z,104357.66
2023-02-06T03:00:49.455Z,104354.98
2023-02-06T03:03:22.265Z,104361.34
2023-02-06T03:05:54.824Z,104359.23
2023-02-06T03:08:30.361Z,104359.13
2023-02-06T03:11:14.126Z,104357.26
2023-02-06T03:13:58.474Z,104352.27
2023-02-06T03:16:33.651Z,104344.45
2023-02-06T03:19:06.352Z,104351.72
2023-02-06T03:21:37.156Z,104352.09
2023-02-06T03:24:18.848Z,104349.97
2023-02-06T03:26:49.810Z,104360.77
2023-02-06T03:29:20.422Z,104364.99
2023-02-06T03:31:55.166Z,104367.16
2023-02-06T03:34:45.156Z,104369.72
2023-02-06T03:37:14.655Z,104363.27
2023-02-06T03:39:44.661Z,104352.45
2023-02-06T03:42:15.558Z,104345.17
2023-02-06T03:44:48.157Z,104348.26
2023-02-06T03:47:19.157Z,104346.38
2023-02-06T03:49:49.322Z,104349.31
2023-02-06T03:52:21.888Z,104346.16
2023-02-06T03:54:54.545Z,104347.55
2023-02-06T03:57:25.073Z,104340.97
2023-02-06T03:59:54.549Z,104341.25
2023-02-06T04:02:25.846Z,104344.21
2023-02-06T04:04:55.414Z,104352.70
2023-02-06T04:07:29.559Z,104355.69
2023-02-06T04:09:59.453Z,104366.44
2023-02-06T04:12:28.759Z,104377.30
2023-02-06T04:14:58.020Z,104376.08
2023-02-06T04:17:43.151Z,104375.80
2023-02-06T04:19:59.170Z,104372.88
2023-02-06T04:22:28.412Z,104376.30
2023-02-06T04:24:57.834Z,104374.54
2023-02-06T04:27:27.226Z,104370.80
2023-02-06T04:29:56.879Z,104368.56
2023-02-06T04:32:26.480Z,104366.84
2023-02-06T04:34:55.701Z,104357.72
2023-02-06T04:37:25.005Z,104362.59
2023-02-06T04:39:54.577Z,104365.25
2023-02-06T04:42:23.799Z,104359.73
2023-02-06T04:44:53.138Z,104359.60
2023-02-06T04:47:22.371Z,104352.24
2023-02-06T04:49:51.624Z,104353.95
2023-02-06T04:52:20.842Z,104349.55
2023-02-06T04:54:50.274Z,104350.91
2023-02-06T04:57:19.764Z,104343.06
2023-02-06T04:59:49.243Z,104340.63
2023-02-06T05:02:18.520Z,104342.72
2023-02-06T05:04:47.788Z,104331.91
2023-02-06T05:07:16.995Z,104329.80
2023-02-06T05:09:46.597Z,104337.23
2023-02-06T05:12:15.864Z,104337.19
2023-02-06T05:14:45.100Z,104345.61
2023-02-06T05:17:14.404Z,104345.23
2023-02-06T05:19:43.927Z,104336.58
2023-02-06T05:22:13.312Z,104339.37
2023-02-06T05:24:42.557Z,104347.36
2023-02-06T05:27:11.891Z,104352.08
2023-02-06T05:29:41.838Z,104353.30
2023-02-06T05:32:11.594Z,104356.83
2023-02-06T05:34:41.262Z,104358.84
2023-02-06T05:37:10.829Z,104355.70
2023-02-06T05:39:40.411Z,104354.80
2023-02-06T05:42:10.082Z,104354.34
2023-02-06T05:44:39.789Z,104366.08
2023-02-06T05:47:09.091Z,104354.77
2023-02-06T05:49:38.334Z,104355.23
2023-02-06T05:52:07.684Z,104358.45
2023-02-06T05:54:37.330Z,104362.98
2023-02-06T05:57:06.906Z,104360.12
2023-02-06T05:59:36.413Z,104364.08
2023-02-06T06:02:05.953Z,104369.70
2023-02-06T06:04:35.281Z,104364.91
2023-02-06T06:07:04.877Z,104361.45
2023-02-06T06:09:34.100Z,104355.20
2023-02-06T06:12:03.335Z,104364.17
2023-02-06T06:14:32.704Z,104370.13
2023-02-06T06:17:02.298Z,104376.61
2023-02-06T06:19:31.598Z,104373.59
2023-02-06T06:22:01.040Z,104371.18
2023-02-06T06:24:30.297Z,104378.94
2023-02-06T06:27:00.111Z,104381.86
2023-02-06T06:29:29.634Z,104388.23
2023-02-06T06:31:59.307Z,104388.95
2023-02-06T06:34:28.728Z,104387.64
2023-02-06T06:36:58.007Z,104383.39
2023-02-06T06:39:27.299Z,104385.70
2023-02-06T06:41:56.638Z,104386.67
2023-02-06T06:44:26.268Z,104394.58
2023-02-06T06:46:55.755Z,104393.96
2023-02-06T06:49:25.248Z,104390.42
2023-02-06T06:51:54.541Z,104386.46
2023-02-06T06:54:24.492Z,104385.43
2023-02-06T06:56:54.165Z,104382.28
2023-02-06T06:59:23.399Z,104387.62
2023-02-06T07:01:52.654Z,104386.17
2023-02-06T07:04:23.041Z,104387.35
2023-02-06T07:06:52.289Z,104375.64
2023-02-06T07:09:21.593Z,104379.52
2023-02-06T07:11:50.894Z,104376.91
2023-02-06T07:14:20.368Z,104371.45
2023-02-06T07:16:49.906Z,104374.75
2023-02-06T07:19:19.555Z,104377.88
2023-02-06T07:21:49.143Z,104374.80
2023-02-06T07:24:18.451Z,104368.37
2023-02-06T07:26:47.683Z,104358.46
2023-02-06T07:29:17.271Z,104363.90
2023-02-06T07:31:46.889Z,104360.18
2023-02-06T07:34:17.086Z,104357.55
2023-02-06T07:36:46.540Z,104357.66
2023-02-06T07:39:15.805Z,104351.27
2023-02-06T07:41:46.590Z,104356.13
2023-02-06T07:44:16.610Z,104342.32
2023-02-06T07:46:45.908Z,104347.09
2023-02-06T07:49:16.469Z,104346.14
2023-02-06T07:51:46.950Z,104348.02
2023-02-06T07:54:16.790Z,104343.48
2023-02-06T07:56:46.557Z,104343.63
2023-02-06T07:59:15.838Z,104330.91
2023-02-06T08:01:45.508Z,104326.80
2023-02-06T08:04:14.794Z,104328.28
2023-02-06T08:06:44.885Z,104327.98
2023-02-06T08:09:17.784Z,104324.14
2023-02-06T08:11:49.176Z,104316.42
2023-02-06T08:14:18.979Z,104322.52
2023-02-06T08:16:49.956Z,104316.47
2023-02-06T08:19:19.660Z,104309.97
2023-02-06T08:21:49.213Z,104303.06
2023-02-06T08:24:18.602Z,104305.34
2023-02-06T08:26:48.381Z,104312.81
2023-02-06T08:29:17.776Z,104304.27
2023-02-06T08:31:47.227Z,104293.91
2023-02-06T08:34:17.115Z,104293.52
2023-02-06T08:36:47.052Z,104296.11
2023-02-06T08:39:18.150Z,104296.18
2023-02-06T08:41:47.679Z,104293.61
2023-02-06T08:44:18.536Z,104292.36
2023-02-06T08:46:52.310Z,104278.48
2023-02-06T08:49:21.636Z,104275.44
2023-02-06T08:51:50.988Z,104275.45
2023-02-06T08:54:23.327Z,104276.78
2023-02-06T08:56:53.459Z,104277.23
2023-02-06T08:59:22.881Z,104273.77
2023-02-06T09:01:52.355Z,104277.69
2023-02-06T09:04:21.992Z,104285.96
2023-02-06T09:06:52.386Z,104279.88
2023-02-06T09:09:21.684Z,104271.13
2023-02-06T09:11:51.117Z,104262.01
2023-02-06T09:14:20.905Z,104258.45
2023-02-06T09:16:50.230Z,104250.17
2023-02-06T09:19:19.665Z,104249.22
2023-02-06T09:21:48.867Z,104246.08
2023-02-06T09:24:18.242Z,104251.70
2023-02-06T09:26:59.521Z,104252.91
2023-02-06T09:29:18.653Z,104259.44
2023-02-06T09:31:47.955Z,104258.36
2023-02-06T09:34:17.844Z,104245.97
2023-02-06T09:36:47.178Z,104264.66
2023-02-06T09:39:16.464Z,104277.73
2023-02-06T09:41:57.750Z,104278.11
2023-02-06T09:44:30.178Z,104273.89
2023-02-06T09:47:28.086Z,104270.58
2023-02-06T09:50:07.388Z,104272.98
2023-02-06T09:53:04.322Z,104273.39
2023-02-06T09:55:49.073Z,104270.20
2023-02-06T09:58:47.509Z,104280.28
2023-02-06T10:01:25.897Z,104280.58
2023-02-06T10:04:14.386Z,104288.61
2023-02-06T10:06:49.417Z,104295.86
2023-02-06T10:09:30.970Z,104286.44
2023-02-06T10:12:06.425Z,104296.41
2023-02-06T10:14:49.956Z,104293.95
2023-02-06T10:17:31.911Z,104280.94
2023-02-06T10:20:07.286Z,104279.04
2023-02-06T10:23:00.594Z,104280.82
2023-02-06T10:25:35.723Z,104285.38
2023-02-06T10:28:15.273Z,104289.09
2023-02-06T10:30:57.327Z,104290.81
2023-02-06T10:33:41.522Z,104292.50
2023-02-06T10:36:29.562Z,104288.77
2023-02-06T10:39:07.906Z,104288.42
2023-02-06T10:42:06.354Z,104280.66
2023-02-06T10:44:51.712Z,104275.25
2023-02-06T10:47:24.463Z,104272.73
2023-02-06T10:50:01.256Z,104271.32
2023-02-06T10:52:34.263Z,104273.28
2023-02-06T10:55:06.637Z,104276.70
2023-02-06T10:57:36.295Z,104274.45
2023-02-06T11:00:08.099Z,104270.76
2023-02-06T11:02:43.859Z,104268.69
2023-02-06T11:05:19.382Z,104270.80
2023-02-06T11:07:51.358Z,104262.52
2023-02-06T11:10:23.599Z,104266.35
2023-02-06T11:13:12.597Z,104269.17
2023-02-06T11:15:57.465Z,104270.41
2023-02-06T11:18:33.045Z,104263.38
2023-02-06T11:21:03.565Z,104262.74
2023-02-06T11:23:35.349Z,104260.59
2023-02-06T11:26:19.129Z,104259.68
2023-02-06T11:28:53.883Z,104257.49
2023-02-06T11:31:46.114Z,104263.13
2023-02-06T11:34:24.349Z,104256.41
2023-02-06T11:37:05.723Z,104258.38
2023-02-06T11:39:40.056Z,104257.10
2023-02-06T11:42:21.409Z,104250.66
2023-02-06T11:44:52.339Z,104246.53
2023-02-06T11:47:37.923Z,104242.66
2023-02-06T11:50:34.886Z,104242.34
2023-02-06T11:53:18.860Z,104247.55
2023-02-06T11:55:51.511Z,104237.14
2023-02-06T11:58:28.554Z,104237.67
2023-02-06T12:01:06.652Z,104236.26
2023-02-06T12:03:41.737Z,104243.67
2023-02-06T12:06:30.780Z,104244.25
2023-02-06T12:09:05.803Z,104236.47
2023-02-06T12:11:38.240Z,104225.34
2023-02-06T12:14:20.064Z,104229.92
2023-02-06T12:16:50.673Z,104219.73
2023-02-06T12:19:26.211Z,104217.66
2023-02-06T12:21:59.099Z,104217.85
2023-02-06T12:24:40.212Z,104212.84
2023-02-06T12:27:39.622Z,104216.53
2023-02-06T12:30:47.192Z,104215.44
2023-02-06T12:33:26.652Z,104206.78
2023-02-06T12:36:09.735Z,104202.98
2023-02-06T12:38:41.953Z,104206.03
2023-02-06T12:41:22.713Z,104205.97
2023-02-06T12:43:55.359Z,104191.70
2023-02-06T12:46:24.928Z,104188.00
2023-02-06T12:48:57.207Z,104182.34
2023-02-06T12:51:32.836Z,104186.67
2023-02-06T12:54:17.209Z,104178.84
2023-02-06T12:56:55.650Z,104175.91
2023-02-06T12:59:41.686Z,104164.53
2023-02-06T13:02:20.952Z,104167.16
2023-02-06T13:04:50.772Z,104158.97
2023-02-06T13:07:22.602Z,104153.93
2023-02-06T13:09:54.510Z,104163.26
2023-02-06T13:12:26.625Z,104157.06
2023-02-06T13:14:58.513Z,104156.23
2023-02-06T13:17:41.848Z,104148.61
2023-02-06T13:20:16.063Z,104140.70
2023-02-06T13:22:53.853Z,104137.72
2023-02-06T13:25:36.515Z,104137.42
2023-02-06T13:28:25.987Z,104130.16
2023-02-06T13:31:07.813Z,104130.90
2023-02-06T13:33:45.633Z,104117.30
2023-02-06T13:36:21.425Z,104112.91
2023-02-06T13:38:56.026Z,104105.28
2023-02-06T13:41:31.248Z,104104.98
2023-02-06T13:44:05.271Z,104105.89
2023-02-06T13:46:53.241Z,104104.52
2023-02-06T13:49:31.454Z,104106.39
2023-02-06T13:52:13.010Z,104110.94
2023-02-06T13:54:50.921Z,104113.90
2023-02-06T13:57:58.371Z,104116.66
2023-02-06T14:00:30.293Z,104110.03
2023-02-06T14:03:08.955Z,104106.44
2023-02-06T14:05:47.749Z,104110.94
2023-02-06T14:08:25.999Z,104098.82
2023-02-06T14:11:13.832Z,104094.31
2023-02-06T14:14:14.759Z,104097.34
2023-02-06T14:16:53.168Z,104095.39
2023-02-06T14:19:28.463Z,104096.27
2023-02-06T14:22:01.028Z,104098.76
2023-02-06T14:24:44.392Z,104086.14
2023-02-06T14:27:14.903Z,104091.45
2023-02-06T14:29:47.448Z,104090.39
2023-02-06T14:32:20.602Z,104084.39
2023-02-06T14:34:59.842Z,104103.06
2023-02-06T14:37:57.601Z,104105.45
2023-02-06T14:40:28.953Z,104109.16
2023-02-06T14:42:59.747Z,104103.16
2023-02-06T14:45:40.940Z,104103.86
2023-02-06T14:48:05.242Z,104112.35
2023-02-06T14:50:37.623Z,104110.28
2023-02-06T14:53:24.817Z,104108.01
2023-02-06T14:55:55.030Z,104108.22
2023-02-06T14:58:31.896Z,104113.81
2023-02-06T15:01:19.194Z,104111.47
2023-02-06T15:03:51.864Z,104115.03
2023-02-06T15:06:30.512Z,104119.66
2023-02-06T15:09:00.502Z,104119.36
2023-02-06T15:11:32.842Z,104110.94
2023-02-06T15:14:03.492Z,104113.43
2023-02-06T15:16:34.320Z,104110.47
2023-02-06T15:19:15.971Z,104111.59
2023-02-06T15:21:45.244Z,104112.59
2023-02-06T15:24:34.503Z,104118.41
2023-02-06T15:27:06.872Z,104119.72
2023-02-06T15:29:36.220Z,104118.99
2023-02-06T15:32:08.248Z,104122.98
2023-02-06T15:34:37.883Z,104127.70
2023-02-06T15:37:30.556Z,104131.37
2023-02-06T15:40:08.867Z,104131.68
2023-02-06T15:42:38.466Z,104130.74
2023-02-06T15:45:09.132Z,104123.81
2023-02-06T15:47:40.458Z,104129.74
2023-02-06T15:50:15.872Z,104121.87
2023-02-06T15:52:47.030Z,104117.30
2023-02-06T15:55:28.544Z,104117.42
2023-02-06T15:57:59.432Z,104112.79
2023-02-06T16:00:30.954Z,104114.70
2023-02-06T16:03:02.882Z,104110.48
2023-02-06T16:05:40.712Z,104115.83
2023-02-06T16:08:30.294Z,104107.13
2023-02-06T16:11:05.421Z,104107.67
2023-02-06T16:13:35.227Z,104100.48
2023-02-06T16:16:13.991Z,104108.88
2023-02-06T16:18:43.266Z,104111.19
2023-02-06T16:21:18.444Z,104107.48
2023-02-06T16:23:49.932Z,104096.36
2023-02-06T16:26:24.486Z,104105.59
2023-02-06T16:29:06.317Z,104116.09
2023-02-06T16:31:38.925Z,104109.19
2023-02-06T16:34:37.159Z,104115.30
2023-02-06T16:37:10.619Z,104105.78
2023-02-06T16:39:42.397Z,104102.82
2023-02-06T16:42:15.027Z,104106.85
2023-02-06T16:44:47.284Z,104108.63
2023-02-06T16:47:18.696Z,104109.11
2023-02-06T16:49:48.857Z,104108.75
2023-02-06T16:52:27.238Z,104114.05
2023-02-06T16:55:01.143Z,104118.03
2023-02-06T16:57:36.716Z,104118.06
2023-02-06T17:00:15.115Z,104115.94
2023-02-06T17:02:45.096Z,104120.81
2023-02-06T17:05:15.368Z,104122.51
2023-02-06T17:07:45.286Z,104123.82
2023-02-06T17:10:15.307Z,104120.42
2023-02-06T17:12:46.982Z,104123.98
2023-02-06T17:15:17.865Z,104125.32
2023-02-06T17:17:47.560Z,104131.00
2023-02-06T17:20:31.868Z,104134.94
2023-02-06T17:23:01.454Z,104134.08
2023-02-06T17:25:30.769Z,104132.80
2023-02-06T17:28:01.183Z,104132.77
2023-02-06T17:30:30.860Z,104133.53
2023-02-06T17:33:00.195Z,104136.11
2023-02-06T17:35:30.656Z,104129.29
2023-02-06T17:38:00.726Z,104126.73
2023-02-06T17:40:31.966Z,104136.72
2023-02-06T17:43:03.946Z,104133.18
2023-02-06T17:45:33.967Z,104136.64
2023-02-06T17:48:03.439Z,104131.08
2023-02-06T17:50:33.274Z,104130.30
2023-02-06T17:53:03.925Z,104129.92
2023-02-06T17:55:33.691Z,104134.70
2023-02-06T17:58:03.343Z,104133.00
2023-02-06T18:00:33.067Z,104125.55
2023-02-06T18:03:04.684Z,104127.34
2023-02-06T18:05:35.025Z,104129.97
2023-02-06T18:08:04.550Z,104128.95
2023-02-06T18:10:33.826Z,104115.16
2023-02-06T18:13:03.606Z,104122.10
2023-02-06T18:15:33.173Z,104117.87
2023-02-06T18:18:04.457Z,104116.22
2023-02-06T18:20:33.852Z,104112.00
2023-02-06T18:23:03.396Z,104109.89
2023-02-06T18:25:32.718Z,104096.95
2023-02-06T18:28:02.249Z,104094.45
2023-02-06T18:30:31.571Z,104096.28
2023-02-06T18:33:01.108Z,104094.65
2023-02-06T18:35:30.769Z,104094.70
2023-02-06T18:38:00.353Z,104100.00
2023-02-06T18:40:30.117Z,104094.35
2023-02-06T18:42:59.445Z,104094.73
2023-02-06T18:45:33.046Z,104086.94
2023-02-06T18:48:03.895Z,104090.05
2023-02-06T18:50:34.020Z,104087.93
2023-02-06T18:53:03.340Z,104085.34
2023-02-06T18:55:34.773Z,104081.36
2023-02-06T18:58:05.024Z,104080.11
2023-02-06T19:00:37.449Z,104077.11
2023-02-06T19:03:07.508Z,104078.84
2023-02-06T19:05:37.984Z,104071.88
2023-02-06T19:08:07.478Z,104074.48
2023-02-06T19:10:37.354Z,104077.09
2023-02-06T19:13:09.071Z,104080.55
2023-02-06T19:15:38.470Z,104077.48
2023-02-06T19:18:08.939Z,104084.41
2023-02-06T19:20:39.860Z,104081.81
2023-02-06T19:23:09.543Z,104075.30
2023-02-06T19:25:41.420Z,104069.17
2023-02-06T19:28:11.212Z,104066.13
2023-02-06T19:30:41.154Z,104055.72
2023-02-06T19:33:12.096Z,104056.55
2023-02-06T19:35:42.264Z,104058.31
2023-02-06T19:38:11.891Z,104059.59
2023-02-06T19:40:41.136Z,104061.70
2023-02-06T19:43:10.695Z,104066.47
2023-02-06T19:45:40.015Z,104065.19
2023-02-06T19:48:12.130Z,104062.19
2023-02-06T19:50:42.484Z,104055.67
2023-02-06T19:53:15.567Z,104051.70
2023-02-06T19:55:46.554Z,104048.64
2023-02-06T19:58:15.126Z,104055.94
2023-02-06T20:00:44.424Z,104059.36
2023-02-06T20:03:14.407Z,104057.15
2023-02-06T20:05:44.446Z,104060.15
2023-02-06T20:08:14.011Z,104067.47
2023-02-06T20:10:43.266Z,104062.69
2023-02-06T20:13:12.832Z,104064.52
2023-02-06T20:15:42.147Z,104054.16
2023-02-06T20:18:12.597Z,104054.16
2023-02-06T20:20:42.022Z,104056.35
2023-02-06T20:23:11.474Z,104055.48
2023-02-06T20:25:40.837Z,104055.41
2023-02-06T20:28:10.187Z,104056.67
2023-02-06T20:30:39.985Z,104067.02
2023-02-06T20:33:10.051Z,104063.05
2023-02-06T20:35:45.794Z,104056.98
2023-02-06T20:38:15.297Z,104057.78
2023-02-06T20:40:48.206Z,104058.59
2023-02-06T20:43:17.701Z,104058.59
2023-02-06T20:45:47.245Z,104052.49
2023-02-06T20:48:16.609Z,104045.56
2023-02-06T20:50:45.915Z,104043.75
2023-02-06T20:53:15.291Z,104049.75
2023-02-06T20:55:47.579Z,104039.81
2023-02-06T20:58:16.816Z,104045.88
2023-02-06T21:00:46.423Z,104036.89
2023-02-06T21:03:15.646Z,104043.75
2023-02-06T21:05:45.807Z,104048.89
2023-02-06T21:08:15.073Z,104044.08
2023-02-06T21:10:44.570Z,104044.53
2023-02-06T21:13:13.806Z,104041.04
2023-02-06T21:15:43.485Z,104041.36
2023-02-06T21:18:12.809Z,104045.74
2023-02-06T21:20:42.262Z,104042.69
2023-02-06T21:23:11.645Z,104040.95
2023-02-06T21:25:42.966Z,104036.66
2023-02-06T21:28:12.320Z,104039.12
2023-02-06T21:30:41.978Z,104048.64
2023-02-06T21:33:11.375Z,104045.99
2023-02-06T21:35:40.916Z,104046.03
2023-02-06T21:38:10.400Z,104042.56
2023-02-06T21:40:39.831Z,104044.78
2023-02-06T21:43:09.392Z,104039.34
2023-02-06T21:45:42.024Z,104043.19
2023-02-06T21:48:11.963Z,104043.17
2023-02-06T21:50:42.541Z,104047.47
2023-02-06T21:53:12.031Z,104050.92
2023-02-06T21:55:45.219Z,104046.61
2023-02-06T21:58:15.132Z,104045.78
2023-02-06T22:00:46.226Z,104040.53
2023-02-06T22:03:15.980Z,104041.32
2023-02-06T22:05:46.460Z,104041.75
2023-02-06T22:08:19.184Z,104039.09
2023-02-06T22:10:49.185Z,104041.99
2023-02-06T22:13:19.330Z,104043.63
2023-02-06T22:16:13.071Z,104046.22
2023-02-06T22:18:48.495Z,104045.27
2023-02-06T22:21:18.622Z,104049.19
2023-02-06T22:23:49.338Z,104041.82
2023-02-06T22:26:21.301Z,104045.23
2023-02-06T22:28:51.741Z,104042.12
2023-02-06T22:31:23.668Z,104052.44
2023-02-06T22:34:00.378Z,104052.48
2023-02-06T22:36:32.780Z,104053.34
2023-02-06T22:39:06.647Z,104049.36
2023-02-06T22:41:44.342Z,104042.38
2023-02-06T22:44:15.849Z,104044.59
2023-02-06T22:46:47.545Z,104044.48
2023-02-06T22:49:17.718Z,104042.83
2023-02-06T22:51:47.393Z,104041.97
2023-02-06T22:54:16.991Z,104041.42
2023-02-06T22:56:46.289Z,104041.34
2023-02-06T22:59:26.325Z,104039.23
2023-02-06T23:01:59.134Z,104035.27
2023-02-06T23:04:33.011Z,104035.36
2023-02-06T23:07:02.590Z,104044.48
2023-02-06T23:09:34.654Z,104043.59
2023-02-06T23:12:05.120Z,104031.49
2023-02-06T23:14:35.484Z,104025.34
2023-02-06T23:17:04.894Z,104030.77
2023-02-06T23:19:34.733Z,104031.59
2023-02-06T23:22:03.995Z,104040.65
2023-02-06T23:24:33.297Z,104032.86
2023-02-06T23:27:02.630Z,104036.33
2023-02-06T23:29:31.908Z,104040.70
2023-02-06T23:32:01.320Z,104042.34
2023-02-06T23:34:30.612Z,104045.19
2023-02-06T23:36:59.911Z,104047.44
2023-02-06T23:39:29.154Z,104042.42
2023-02-06T23:41:58.609Z,104044.35
2023-02-06T23:44:27.930Z,104048.18
2023-02-06T23:46:57.342Z,104039.04
2023-02-06T23:49:26.565Z,104040.70
2023-02-06T23:51:55.799Z,104043.61
2023-02-06T23:54:25.046Z,104048.20
2023-02-06T23:56:54.477Z,104045.53
2023-02-06T23:59:23.732Z,104041.24
